Station info - map view · info · telemetry · weather · raw · status · beacons · messages · bulletins · browse · moving · my account
Callsign, ship name or locator: Clear       
It is possible to search using wildcards (*?) after a prefix. Example: OH*
APRS station AB0JT-9 - show graphs
Map loading...
Mic-E message: In service
Location: 39°04.71' N 108°31.93' W - locator DM59RB68DU - show map - static map
1.4 miles Northeast bearing 44° from Grand Junction, Mesa County, Colorado, United States [?]
1.9 miles West bearing 263° from Fruitvale, Mesa County, Colorado, United States
4.6 miles West bearing 258° from Clifton, Mesa County, Colorado, United States
Last position: 2020-12-03 10:31:43 CST (1d 49m ago)
2020-12-03 09:31:43 MST local time at Grand Junction, United States [?]
Altitude: 4521 ft
Course: 161°
Speed: 0 MPH
Device: Kenwood: TM-D710 (rig)
Last path: AB0JT-9>S9PTWQ via GRAND*,WIDE1*,WIDE2-1,qAR,AB0TJ (good)
Positions stored: 3330
Packet rate: 170 seconds between packets on average during 2896 seconds.
Other SSIDs: AB0JT AB0JT-13 AB0JT-3
Stations near current position of AB0JT-9 - show more
callsign distance last heard - CST      callsign distance last heard - CST
WE0B-90.5 miles 261°2020-11-29 20:44:53 FW05030.6 miles 27°2020-12-04 11:19:00
K9ZRG-70.9 miles 70°2020-11-29 13:24:57 N7ALX-20.9 miles 42°2020-11-20 17:56:59
AC0VH-11.2 miles 243°2020-11-08 18:51:37 KB0YNA-11.3 miles 148°2020-11-24 08:45:14
EW89211.4 miles 62°2020-12-04 11:16:12 KB0DC-21.8 miles 332°2020-12-04 10:51:22
AB0TJ1.9 miles 74°2020-12-04 11:08:14 AB0TJ-101.9 miles 76°2020-11-21 17:07:41
KC0MJY2.1 miles 68°2020-11-25 19:39:11 KD0NU-83.0 miles 328°2020-11-28 15:58:59
FW57723.4 miles 200°2020-12-04 11:16:47 N5WNE-14.8 miles 264°2020-11-19 14:52:27
KI4JQI5.1 miles 272°2020-11-07 21:28:17 K0DZ5.1 miles 272°2020-12-04 11:03:47
K0DZ-95.1 miles 272°2020-11-29 16:30:08 AB0JT-46.8 miles 276°2020-11-16 12:40:47
AB0JT-136.9 miles 276°2020-12-04 11:17:14 KE0TKP-98.6 miles 78°2020-11-24 22:03:14
Stations which heard AB0JT-9 directly on radio –
callsign pkts first heard - CST last heard longest (tx => rx) longest at - CST
UBUTTE 11 2020-12-02 08:23:32 2020-12-02 15:22:55 DM49TE > DM58QN 99.7 miles 114° 2020-12-02 09:02:14
BAXTER 40 2020-12-02 07:38:25 2020-12-03 10:19:17 DM58FW > DM59MO 54.0 miles 34° 2020-12-02 15:17:05
GRAND 24 2020-12-02 07:37:55 2020-12-03 10:31:43 DM59MF > DM59VC 40.0 miles 103° 2020-12-02 15:44:49
SHEPRD 1 2020-12-02 11:35:29 2020-12-02 11:35:29 DN40BM > DN41BA 34.5 miles 4° 2020-12-02 11:35:29
BALD 3 2020-12-02 08:17:31 2020-12-02 15:19:06 DM58DW > DM58IM 34.4 miles 147° 2020-12-02 15:11:06
ABAJO 4 2020-12-02 08:19:31 2020-12-02 15:15:05 DM49TD > DM57GU 101.1 miles 152° 2020-12-02 09:00:13
K7YI-4 22 2020-12-02 08:27:16 2020-12-02 15:34:55 DM59KD > DM49JF 108.2 miles 274° 2020-12-02 15:34:55
WA7FFM-1 32 2020-12-02 10:41:57 2020-12-02 12:52:15 DN40EB > DN40DI 19.9 miles 341° 2020-12-02 12:52:15
DOLLAR 1 2020-12-02 08:25:31 2020-12-02 08:25:31 DM58DW > DM67AX 113.8 miles 125° 2020-12-02 08:25:31
KF6RAL-2 6 2020-12-02 10:41:27 2020-12-02 12:05:09 DN40EB > DN30XO 44.7 miles 327° 2020-12-02 10:41:27
KB7STN-3 14 2020-12-02 11:13:37 2020-12-02 12:16:33 DN40BM > DN30XL 8.1 miles 252° 2020-12-02 11:34:27
CEDRMT 9 2020-12-02 08:43:15 2020-12-02 14:41:36 DM48WX > DM49QE 30.8 miles 297° 2020-12-02 08:43:15
KF7TBD-10 16 2020-12-02 09:30:44 2020-12-02 14:05:25 DM49QN > DM49OO 9.2 miles 295° 2020-12-02 09:30:44
KF6RAL-1 2 2020-12-02 10:51:03 2020-12-02 10:54:27 DN40EE > DN40AG 16.0 miles 290° 2020-12-02 10:51:03
N7BYU-1 9 2020-12-02 10:39:17 2020-12-02 12:58:43 DN40FA > DN40EF 17.2 miles 333° 2020-12-02 12:58:43
AB0TJ 17 2020-12-02 07:35:47 2020-12-03 10:14:07 DM59PD > DM59SC 13.3 miles 104° 2020-12-02 07:35:47

Only position packets which were originated by the station are shown here. The range statistics show some extra long hops, because some digipeaters do not correctly add themselves to the digipeater path. Please check the raw packets.
About this site
This page shows real-time information collected from the Automatic Position Reporting System Internet network (APRS-IS). APRS is used by amateur (ham) radio operators to transmit real-time position information, weather data, telemetry and messages over the radio. A vehicle equipped with a GPS receiver, a VHF transmitter or HF transceiver and a small computer device called a tracker transmits it's location, speed and course in a small data packet, which is then received by a nearby iGate receiving site which forwards the packet on the Internet. Systems connected to the Internet can send information on the APRS-IS without a radio transmitter, or collect and display information transmitted anywhere in the world.
User guide · FAQ · Blog · Discussion group · Linking to aprs.fi · AIS sites · Service status · Database statistics · Advertising on aprs.fi · Technical details · API · Change log · Planned changes · Credits and thanks · Terms Of Service · iPhone/iPad APRS